Ranchos De Taos, NM (87557)

8:07 AM MDT on September 01, 2014 (GMT -0600)
Talpa | Change Station
CLOSE
Current Station
Personal Weather Station
Location: Talpa, NM
Elevation: 7277 ft
Nearby Weather Stations

Elev 7277 ft 36.34 °N, 105.59 °W | Updated 2 minutes ago

Clear
Clear
60.9 °F
Feels Like 60.9 °F
N
13.0
Wind Variable Wind from ESE
Gusts 18.0 mph

Today
High -- | Low -- °F
--% Chance of Precip.
Yesterday
High -- | Low -- °F
Precip. -- in
6:33 AM 7:30 PM
Waxing Crescent, 41% visible
Pressure 30.31 in
Visibility 10.0 miles
Clouds Clear
Dew Point 39 °F
Humidity 45%
Rainfall 0.00 in
Snow Depth 0 in
UV 1 out of 12
Pollen 10.10 out of 12
Air Quality Not available.
Flu Activity Not available.
METAR KAXX 011355Z AUTO 14004KT 10SM CLR 11/04 A3031 RMK AO2 T01110042

More Conditions Fewer Conditions

Pressure 30.31 in
Visibility 10.0 miles
Clouds Clear
Dew Point 39 °F
Humidity 45%
Rainfall 0.00 in
Snow Depth 0 in
UV 1 out of 12
Pollen 10.10 out of 12
Air Quality Not available.
Flu Activity Not available.
METAR KAXX 011355Z AUTO 14004KT 10SM CLR 11/04 A3031 RMK AO2 T01110042

More Conditions Fewer Conditions

10-Day Weather Forecast

Almanac

Astronomy

Sep. 01, 2014 Rise Set
Actual Time 6:33 AM MDT 7:30 PM MDT
Civil Twilight 6:07 AM MDT 7:56 PM MDT
Nautical Twilight 5:36 AM MDT 8:27 PM MDT
Astronomical Twilight 5:04 AM MDT 8:59 PM MDT
Moon 1:10 PM MDT 11:45 PM MDT
Length of Visible Light 13h 48m
Length of Day
12h 56m
Tomorrow will be 2m 13s shorter.
Waxing Crescent, 41% of the Moon is Illuminated
Today
Waxing Crescent
Sep 2
First Quarter
Sep 8
Full
Sep 15
Last Quarter
Sep 24
New

Today's Extremes

State Highs State Lows

Community

WunderPhotos

Upload Photos

1,749,232 photos uploaded!

Nearby

Snow Depth

Station Depth Elevation
Gallegos Peak 0 in 9800 ft
Tolby 1 in 10180 ft
Red River Pass #2 0 in 9850 ft
Wesner Springs 2 in 11120 ft
Bateman 0 in 9300 ft

Earthquake Activity

City Distance Mag. Time & Date
Trinidad, Colorado 64 miles 2.7 4:20 AM MDT
2014-08-31
Minimum magnitude displayed is 2.5.

Coastal Water Temperatures

Place Temperature
No Stations Reporting

Nearby Weather Stations